sensor_id;sensor_type;location;lat;lon;timestamp;P1;durP1;ratioP1;P2;durP2;ratioP2
71048;SDS011;58704;53.358;-6.238;2023-08-06T00:00:19;3.67;;;2.35;;
71048;SDS011;58704;53.358;-6.238;2023-08-06T00:02:45;5.10;;;2.20;;
71048;SDS011;58704;53.358;-6.238;2023-08-06T00:05:10;3.30;;;1.93;;
71048;SDS011;58704;53.358;-6.238;2023-08-06T00:07:35;4.67;;;2.03;;
71048;SDS011;58704;53.358;-6.238;2023-08-06T00:10:01;4.55;;;2.15;;
71048;SDS011;58704;53.358;-6.238;2023-08-06T00:12:26;4.17;;;1.97;;
71048;SDS011;58704;53.358;-6.238;2023-08-06T00:14:52;3.20;;;2.10;;
71048;SDS011;58704;53.358;-6.238;2023-08-06T00:17:18;3.63;;;1.77;;
71048;SDS011;58704;53.358;-6.238;2023-08-06T00:19:44;4.30;;;2.23;;
71048;SDS011;58704;53.358;-6.238;2023-08-06T00:22:09;4.43;;;2.25;;
71048;SDS011;58704;53.358;-6.238;2023-08-06T00:24:34;4.33;;;2.10;;
71048;SDS011;58704;53.358;-6.238;2023-08-06T00:27:00;3.17;;;2.00;;
71048;SDS011;58704;53.358;-6.238;2023-08-06T00:29:25;5.97;;;2.10;;
71048;SDS011;58704;53.358;-6.238;2023-08-06T00:31:51;4.60;;;2.20;;
71048;SDS011;58704;53.358;-6.238;2023-08-06T00:34:16;4.00;;;1.83;;
71048;SDS011;58704;53.358;-6.238;2023-08-06T00:36:42;3.60;;;2.17;;
71048;SDS011;58704;53.358;-6.238;2023-08-06T00:39:07;4.87;;;2.07;;
71048;SDS011;58704;53.358;-6.238;2023-08-06T00:41:32;4.77;;;2.33;;
71048;SDS011;58704;53.358;-6.238;2023-08-06T00:43:58;6.53;;;2.00;;
71048;SDS011;58704;53.358;-6.238;2023-08-06T00:46:23;9.13;;;2.67;;
71048;SDS011;58704;53.358;-6.238;2023-08-06T00:48:49;5.93;;;2.17;;
71048;SDS011;58704;53.358;-6.238;2023-08-06T00:51:16;6.93;;;2.25;;
71048;SDS011;58704;53.358;-6.238;2023-08-06T00:53:41;4.20;;;2.07;;
71048;SDS011;58704;53.358;-6.238;2023-08-06T00:56:07;4.43;;;2.33;;
71048;SDS011;58704;53.358;-6.238;2023-08-06T00:58:34;4.75;;;2.28;;
71048;SDS011;58704;53.358;-6.238;2023-08-06T01:01:00;5.73;;;2.40;;
71048;SDS011;58704;53.358;-6.238;2023-08-06T01:03:26;4.45;;;2.33;;
71048;SDS011;58704;53.358;-6.238;2023-08-06T01:05:51;3.50;;;2.30;;
71048;SDS011;58704;53.358;-6.238;2023-08-06T01:10:55;5.13;;;2.20;;
71048;SDS011;58704;53.358;-6.238;2023-08-06T01:16:04;5.45;;;2.63;;
71048;SDS011;58704;53.358;-6.238;2023-08-06T01:18:31;6.30;;;2.28;;
71048;SDS011;58704;53.358;-6.238;2023-08-06T01:20:56;4.27;;;2.60;;
71048;SDS011;58704;53.358;-6.238;2023-08-06T01:23:22;4.23;;;2.63;;
71048;SDS011;58704;53.358;-6.238;2023-08-06T01:28:23;4.78;;;2.40;;
71048;SDS011;58704;53.358;-6.238;2023-08-06T01:31:15;9.55;;;2.90;;
71048;SDS011;58704;53.358;-6.238;2023-08-06T01:33:45;5.20;;;2.50;;
71048;SDS011;58704;53.358;-6.238;2023-08-06T01:36:13;6.60;;;2.38;;
71048;SDS011;58704;53.358;-6.238;2023-08-06T01:38:40;5.13;;;2.65;;
71048;SDS011;58704;53.358;-6.238;2023-08-06T01:41:06;6.80;;;2.60;;
71048;SDS011;58704;53.358;-6.238;2023-08-06T01:43:31;5.90;;;2.40;;
71048;SDS011;58704;53.358;-6.238;2023-08-06T01:45:56;7.22;;;3.53;;
71048;SDS011;58704;53.358;-6.238;2023-08-06T01:48:22;4.20;;;2.40;;
71048;SDS011;58704;53.358;-6.238;2023-08-06T01:50:47;4.40;;;2.33;;
71048;SDS011;58704;53.358;-6.238;2023-08-06T01:53:13;5.67;;;2.30;;
71048;SDS011;58704;53.358;-6.238;2023-08-06T01:55:38;3.13;;;2.00;;
71048;SDS011;58704;53.358;-6.238;2023-08-06T01:58:03;4.60;;;2.25;;
71048;SDS011;58704;53.358;-6.238;2023-08-06T02:00:29;6.80;;;2.50;;
71048;SDS011;58704;53.358;-6.238;2023-08-06T02:02:54;7.17;;;2.70;;
71048;SDS011;58704;53.358;-6.238;2023-08-06T02:05:19;4.93;;;2.30;;
71048;SDS011;58704;53.358;-6.238;2023-08-06T02:07:45;5.03;;;2.50;;
71048;SDS011;58704;53.358;-6.238;2023-08-06T02:10:10;6.80;;;2.43;;
71048;SDS011;58704;53.358;-6.238;2023-08-06T02:12:35;5.67;;;2.10;;
71048;SDS011;58704;53.358;-6.238;2023-08-06T02:15:01;5.30;;;2.57;;
71048;SDS011;58704;53.358;-6.238;2023-08-06T02:17:26;8.47;;;2.23;;
71048;SDS011;58704;53.358;-6.238;2023-08-06T02:19:51;5.60;;;2.70;;
71048;SDS011;58704;53.358;-6.238;2023-08-06T02:22:17;6.53;;;2.77;;
71048;SDS011;58704;53.358;-6.238;2023-08-06T02:24:42;4.47;;;2.73;;
71048;SDS011;58704;53.358;-6.238;2023-08-06T02:27:08;4.47;;;2.43;;
71048;SDS011;58704;53.358;-6.238;2023-08-06T02:29:33;5.32;;;2.70;;
71048;SDS011;58704;53.358;-6.238;2023-08-06T02:31:59;6.67;;;2.63;;
71048;SDS011;58704;53.358;-6.238;2023-08-06T02:34:26;3.60;;;2.15;;
71048;SDS011;58704;53.358;-6.238;2023-08-06T02:36:52;5.40;;;2.17;;
71048;SDS011;58704;53.358;-6.238;2023-08-06T02:39:17;5.80;;;3.07;;
71048;SDS011;58704;53.358;-6.238;2023-08-06T02:41:42;6.33;;;2.70;;
71048;SDS011;58704;53.358;-6.238;2023-08-06T02:44:08;5.00;;;2.30;;
71048;SDS011;58704;53.358;-6.238;2023-08-06T02:46:33;5.00;;;2.40;;
71048;SDS011;58704;53.358;-6.238;2023-08-06T02:48:58;7.80;;;2.63;;
71048;SDS011;58704;53.358;-6.238;2023-08-06T02:51:24;4.37;;;2.77;;
71048;SDS011;58704;53.358;-6.238;2023-08-06T02:53:49;6.87;;;2.17;;
71048;SDS011;58704;53.358;-6.238;2023-08-06T02:56:14;5.73;;;2.67;;
71048;SDS011;58704;53.358;-6.238;2023-08-06T02:58:40;4.43;;;2.77;;
71048;SDS011;58704;53.358;-6.238;2023-08-06T03:01:06;6.20;;;2.90;;
71048;SDS011;58704;53.358;-6.238;2023-08-06T03:03:32;7.70;;;2.88;;
71048;SDS011;58704;53.358;-6.238;2023-08-06T03:05:58;5.20;;;2.53;;
71048;SDS011;58704;53.358;-6.238;2023-08-06T03:08:24;5.72;;;2.60;;
71048;SDS011;58704;53.358;-6.238;2023-08-06T03:10:50;5.53;;;2.85;;
71048;SDS011;58704;53.358;-6.238;2023-08-06T03:13:16;9.07;;;2.87;;
71048;SDS011;58704;53.358;-6.238;2023-08-06T03:15:41;6.65;;;2.92;;
71048;SDS011;58704;53.358;-6.238;2023-08-06T03:18:07;6.83;;;3.17;;
71048;SDS011;58704;53.358;-6.238;2023-08-06T03:20:32;5.80;;;2.80;;
71048;SDS011;58704;53.358;-6.238;2023-08-06T03:22:58;7.30;;;2.30;;
71048;SDS011;58704;53.358;-6.238;2023-08-06T03:25:23;4.33;;;2.13;;
71048;SDS011;58704;53.358;-6.238;2023-08-06T03:27:48;5.63;;;2.80;;
71048;SDS011;58704;53.358;-6.238;2023-08-06T03:30:14;7.70;;;3.17;;
71048;SDS011;58704;53.358;-6.238;2023-08-06T03:32:40;5.28;;;2.20;;
71048;SDS011;58704;53.358;-6.238;2023-08-06T03:35:05;5.40;;;2.77;;
71048;SDS011;58704;53.358;-6.238;2023-08-06T03:37:31;5.80;;;2.60;;
71048;SDS011;58704;53.358;-6.238;2023-08-06T03:39:56;5.37;;;2.40;;
71048;SDS011;58704;53.358;-6.238;2023-08-06T03:42:22;5.30;;;3.08;;
71048;SDS011;58704;53.358;-6.238;2023-08-06T03:44:47;5.67;;;2.80;;
71048;SDS011;58704;53.358;-6.238;2023-08-06T03:47:13;11.00;;;2.87;;
71048;SDS011;58704;53.358;-6.238;2023-08-06T03:49:38;7.88;;;2.58;;
71048;SDS011;58704;53.358;-6.238;2023-08-06T03:52:04;4.67;;;2.33;;
71048;SDS011;58704;53.358;-6.238;2023-08-06T03:54:30;5.88;;;2.78;;
71048;SDS011;58704;53.358;-6.238;2023-08-06T03:56:55;7.20;;;2.67;;
71048;SDS011;58704;53.358;-6.238;2023-08-06T03:59:21;4.63;;;2.60;;
71048;SDS011;58704;53.358;-6.238;2023-08-06T04:01:46;7.27;;;2.60;;
71048;SDS011;58704;53.358;-6.238;2023-08-06T04:04:11;6.80;;;2.43;;
71048;SDS011;58704;53.358;-6.238;2023-08-06T04:06:37;6.33;;;2.57;;
71048;SDS011;58704;53.358;-6.238;2023-08-06T04:09:02;4.77;;;2.80;;
71048;SDS011;58704;53.358;-6.238;2023-08-06T04:11:28;4.80;;;2.17;;
71048;SDS011;58704;53.358;-6.238;2023-08-06T04:13:53;4.50;;;2.40;;
71048;SDS011;58704;53.358;-6.238;2023-08-06T04:16:20;5.90;;;2.40;;
71048;SDS011;58704;53.358;-6.238;2023-08-06T04:18:46;4.88;;;2.65;;
71048;SDS011;58704;53.358;-6.238;2023-08-06T04:21:11;5.37;;;2.20;;
71048;SDS011;58704;53.358;-6.238;2023-08-06T04:23:37;5.97;;;2.90;;
71048;SDS011;58704;53.358;-6.238;2023-08-06T04:26:02;6.07;;;2.40;;
71048;SDS011;58704;53.358;-6.238;2023-08-06T04:28:27;7.17;;;2.33;;
71048;SDS011;58704;53.358;-6.238;2023-08-06T04:30:53;5.97;;;2.87;;
71048;SDS011;58704;53.358;-6.238;2023-08-06T04:33:18;6.38;;;3.00;;
71048;SDS011;58704;53.358;-6.238;2023-08-06T04:35:44;3.93;;;2.87;;
71048;SDS011;58704;53.358;-6.238;2023-08-06T04:38:10;7.30;;;2.90;;
71048;SDS011;58704;53.358;-6.238;2023-08-06T04:40:35;6.60;;;3.07;;
71048;SDS011;58704;53.358;-6.238;2023-08-06T04:43:01;5.93;;;2.53;;
71048;SDS011;58704;53.358;-6.238;2023-08-06T04:45:27;5.00;;;2.42;;
71048;SDS011;58704;53.358;-6.238;2023-08-06T04:47:52;5.97;;;2.37;;
71048;SDS011;58704;53.358;-6.238;2023-08-06T04:50:19;4.43;;;2.53;;
71048;SDS011;58704;53.358;-6.238;2023-08-06T04:52:45;5.10;;;2.70;;
71048;SDS011;58704;53.358;-6.238;2023-08-06T04:55:10;3.70;;;2.60;;
71048;SDS011;58704;53.358;-6.238;2023-08-06T04:57:36;6.00;;;2.50;;
71048;SDS011;58704;53.358;-6.238;2023-08-06T05:00:01;4.00;;;2.67;;
71048;SDS011;58704;53.358;-6.238;2023-08-06T05:02:27;7.32;;;2.63;;
71048;SDS011;58704;53.358;-6.238;2023-08-06T05:04:52;7.53;;;3.17;;
71048;SDS011;58704;53.358;-6.238;2023-08-06T05:07:18;6.53;;;2.50;;
71048;SDS011;58704;53.358;-6.238;2023-08-06T05:09:43;5.17;;;2.50;;
71048;SDS011;58704;53.358;-6.238;2023-08-06T05:12:09;9.23;;;3.20;;
71048;SDS011;58704;53.358;-6.238;2023-08-06T05:14:34;7.97;;;2.47;;
71048;SDS011;58704;53.358;-6.238;2023-08-06T05:16:59;6.67;;;3.17;;
71048;SDS011;58704;53.358;-6.238;2023-08-06T05:19:27;7.45;;;2.63;;
71048;SDS011;58704;53.358;-6.238;2023-08-06T05:21:52;5.40;;;2.67;;
71048;SDS011;58704;53.358;-6.238;2023-08-06T05:24:18;9.33;;;2.57;;
71048;SDS011;58704;53.358;-6.238;2023-08-06T05:26:43;4.80;;;2.70;;
71048;SDS011;58704;53.358;-6.238;2023-08-06T05:29:11;6.10;;;2.83;;
71048;SDS011;58704;53.358;-6.238;2023-08-06T05:31:37;6.63;;;2.55;;
71048;SDS011;58704;53.358;-6.238;2023-08-06T05:34:02;7.83;;;3.20;;
71048;SDS011;58704;53.358;-6.238;2023-08-06T05:36:28;7.47;;;2.87;;
71048;SDS011;58704;53.358;-6.238;2023-08-06T05:38:53;9.13;;;2.60;;
71048;SDS011;58704;53.358;-6.238;2023-08-06T05:41:19;8.57;;;2.80;;
71048;SDS011;58704;53.358;-6.238;2023-08-06T05:43:44;4.87;;;2.97;;
71048;SDS011;58704;53.358;-6.238;2023-08-06T05:46:10;5.00;;;2.92;;
71048;SDS011;58704;53.358;-6.238;2023-08-06T05:48:35;4.33;;;2.73;;
71048;SDS011;58704;53.358;-6.238;2023-08-06T05:51:00;5.87;;;2.63;;
71048;SDS011;58704;53.358;-6.238;2023-08-06T05:53:26;5.77;;;2.50;;
71048;SDS011;58704;53.358;-6.238;2023-08-06T05:55:51;4.77;;;2.07;;
71048;SDS011;58704;53.358;-6.238;2023-08-06T05:58:16;6.07;;;2.30;;
71048;SDS011;58704;53.358;-6.238;2023-08-06T06:00:42;7.67;;;2.90;;
71048;SDS011;58704;53.358;-6.238;2023-08-06T06:03:08;5.07;;;2.63;;
71048;SDS011;58704;53.358;-6.238;2023-08-06T06:05:33;4.60;;;2.23;;
71048;SDS011;58704;53.358;-6.238;2023-08-06T06:07:59;5.47;;;2.47;;
71048;SDS011;58704;53.358;-6.238;2023-08-06T06:10:24;7.23;;;2.50;;
71048;SDS011;58704;53.358;-6.238;2023-08-06T06:12:49;6.33;;;2.70;;
71048;SDS011;58704;53.358;-6.238;2023-08-06T06:15:15;6.60;;;2.77;;
71048;SDS011;58704;53.358;-6.238;2023-08-06T06:17:40;7.40;;;2.60;;
71048;SDS011;58704;53.358;-6.238;2023-08-06T06:20:06;5.30;;;2.47;;
71048;SDS011;58704;53.358;-6.238;2023-08-06T06:22:31;6.13;;;2.05;;
71048;SDS011;58704;53.358;-6.238;2023-08-06T06:24:57;6.43;;;2.70;;
71048;SDS011;58704;53.358;-6.238;2023-08-06T06:27:22;6.13;;;3.07;;
71048;SDS011;58704;53.358;-6.238;2023-08-06T06:29:48;7.82;;;2.40;;
71048;SDS011;58704;53.358;-6.238;2023-08-06T06:32:13;6.00;;;2.60;;
71048;SDS011;58704;53.358;-6.238;2023-08-06T06:34:38;4.30;;;2.37;;
71048;SDS011;58704;53.358;-6.238;2023-08-06T06:37:04;9.93;;;2.63;;
71048;SDS011;58704;53.358;-6.238;2023-08-06T06:39:29;6.93;;;2.47;;
71048;SDS011;58704;53.358;-6.238;2023-08-06T06:41:55;7.10;;;2.50;;
71048;SDS011;58704;53.358;-6.238;2023-08-06T06:44:20;5.10;;;2.13;;
71048;SDS011;58704;53.358;-6.238;2023-08-06T06:46:46;5.13;;;2.53;;
71048;SDS011;58704;53.358;-6.238;2023-08-06T06:49:11;9.10;;;2.20;;
71048;SDS011;58704;53.358;-6.238;2023-08-06T06:51:36;5.63;;;3.10;;
71048;SDS011;58704;53.358;-6.238;2023-08-06T06:54:02;6.30;;;2.40;;
71048;SDS011;58704;53.358;-6.238;2023-08-06T06:56:27;5.70;;;2.50;;
71048;SDS011;58704;53.358;-6.238;2023-08-06T06:58:52;7.47;;;2.72;;
71048;SDS011;58704;53.358;-6.238;2023-08-06T07:01:18;11.80;;;2.70;;
71048;SDS011;58704;53.358;-6.238;2023-08-06T07:03:43;6.13;;;2.80;;
71048;SDS011;58704;53.358;-6.238;2023-08-06T07:06:08;6.63;;;2.53;;
71048;SDS011;58704;53.358;-6.238;2023-08-06T07:08:34;6.90;;;2.97;;
71048;SDS011;58704;53.358;-6.238;2023-08-06T07:11:03;4.67;;;2.80;;
71048;SDS011;58704;53.358;-6.238;2023-08-06T07:13:29;9.10;;;3.43;;
71048;SDS011;58704;53.358;-6.238;2023-08-06T07:15:54;7.32;;;3.40;;
71048;SDS011;58704;53.358;-6.238;2023-08-06T07:18:20;5.85;;;2.58;;
71048;SDS011;58704;53.358;-6.238;2023-08-06T07:20:49;5.27;;;2.43;;
71048;SDS011;58704;53.358;-6.238;2023-08-06T07:23:15;4.60;;;2.58;;
71048;SDS011;58704;53.358;-6.238;2023-08-06T07:25:40;6.73;;;3.13;;
71048;SDS011;58704;53.358;-6.238;2023-08-06T07:28:05;8.53;;;2.87;;
71048;SDS011;58704;53.358;-6.238;2023-08-06T07:30:31;8.70;;;2.80;;
71048;SDS011;58704;53.358;-6.238;2023-08-06T07:32:56;4.23;;;2.40;;
71048;SDS011;58704;53.358;-6.238;2023-08-06T07:35:22;15.67;;;2.97;;
71048;SDS011;58704;53.358;-6.238;2023-08-06T07:37:47;5.83;;;2.83;;
71048;SDS011;58704;53.358;-6.238;2023-08-06T07:40:12;5.23;;;2.73;;
71048;SDS011;58704;53.358;-6.238;2023-08-06T07:42:38;7.68;;;2.92;;
71048;SDS011;58704;53.358;-6.238;2023-08-06T07:45:04;7.37;;;2.67;;
71048;SDS011;58704;53.358;-6.238;2023-08-06T07:47:30;6.78;;;2.58;;
71048;SDS011;58704;53.358;-6.238;2023-08-06T07:49:55;5.57;;;2.67;;
71048;SDS011;58704;53.358;-6.238;2023-08-06T07:52:20;6.20;;;2.60;;
71048;SDS011;58704;53.358;-6.238;2023-08-06T07:54:46;4.80;;;2.60;;
71048;SDS011;58704;53.358;-6.238;2023-08-06T07:57:11;9.93;;;2.50;;
71048;SDS011;58704;53.358;-6.238;2023-08-06T07:59:37;3.10;;;2.03;;
71048;SDS011;58704;53.358;-6.238;2023-08-06T08:02:02;5.97;;;2.77;;
71048;SDS011;58704;53.358;-6.238;2023-08-06T08:04:29;8.00;;;2.72;;
71048;SDS011;58704;53.358;-6.238;2023-08-06T08:06:54;7.10;;;3.10;;
71048;SDS011;58704;53.358;-6.238;2023-08-06T08:09:20;9.88;;;2.70;;
71048;SDS011;58704;53.358;-6.238;2023-08-06T08:11:45;6.73;;;3.50;;
71048;SDS011;58704;53.358;-6.238;2023-08-06T08:14:10;5.03;;;2.97;;
71048;SDS011;58704;53.358;-6.238;2023-08-06T08:16:36;6.23;;;2.77;;
71048;SDS011;58704;53.358;-6.238;2023-08-06T08:19:01;4.83;;;2.60;;
71048;SDS011;58704;53.358;-6.238;2023-08-06T08:21:28;4.05;;;2.58;;
71048;SDS011;58704;53.358;-6.238;2023-08-06T08:23:54;5.53;;;2.70;;
71048;SDS011;58704;53.358;-6.238;2023-08-06T08:26:20;5.30;;;2.80;;
71048;SDS011;58704;53.358;-6.238;2023-08-06T08:28:45;4.53;;;2.80;;
71048;SDS011;58704;53.358;-6.238;2023-08-06T08:31:11;10.13;;;3.10;;
71048;SDS011;58704;53.358;-6.238;2023-08-06T08:33:39;9.80;;;3.35;;
71048;SDS011;58704;53.358;-6.238;2023-08-06T08:36:05;6.70;;;3.05;;
71048;SDS011;58704;53.358;-6.238;2023-08-06T08:38:30;6.27;;;3.63;;
71048;SDS011;58704;53.358;-6.238;2023-08-06T08:40:56;6.93;;;3.50;;
71048;SDS011;58704;53.358;-6.238;2023-08-06T08:43:21;6.43;;;2.83;;
71048;SDS011;58704;53.358;-6.238;2023-08-06T08:45:49;9.57;;;3.05;;
71048;SDS011;58704;53.358;-6.238;2023-08-06T08:48:15;4.67;;;2.60;;
71048;SDS011;58704;53.358;-6.238;2023-08-06T08:50:42;8.35;;;3.08;;
71048;SDS011;58704;53.358;-6.238;2023-08-06T08:53:13;3.75;;;2.80;;
71048;SDS011;58704;53.358;-6.238;2023-08-06T08:55:39;4.50;;;2.50;;
71048;SDS011;58704;53.358;-6.238;2023-08-06T08:58:05;8.53;;;3.13;;
71048;SDS011;58704;53.358;-6.238;2023-08-06T09:00:30;4.53;;;2.30;;
71048;SDS011;58704;53.358;-6.238;2023-08-06T09:02:56;5.10;;;2.27;;
71048;SDS011;58704;53.358;-6.238;2023-08-06T09:05:23;5.63;;;2.40;;
71048;SDS011;58704;53.358;-6.238;2023-08-06T09:07:52;5.70;;;2.55;;
71048;SDS011;58704;53.358;-6.238;2023-08-06T09:10:17;4.80;;;2.50;;
71048;SDS011;58704;53.358;-6.238;2023-08-06T09:12:44;6.33;;;2.90;;
71048;SDS011;58704;53.358;-6.238;2023-08-06T09:15:10;5.63;;;2.53;;
71048;SDS011;58704;53.358;-6.238;2023-08-06T09:17:36;9.47;;;2.70;;
71048;SDS011;58704;53.358;-6.238;2023-08-06T09:20:14;6.97;;;2.55;;
71048;SDS011;58704;53.358;-6.238;2023-08-06T09:22:40;5.13;;;2.45;;
71048;SDS011;58704;53.358;-6.238;2023-08-06T09:25:06;5.07;;;1.95;;
71048;SDS011;58704;53.358;-6.238;2023-08-06T09:27:35;5.80;;;2.70;;
71048;SDS011;58704;53.358;-6.238;2023-08-06T09:30:01;6.25;;;2.60;;
71048;SDS011;58704;53.358;-6.238;2023-08-06T09:32:32;5.60;;;2.30;;
71048;SDS011;58704;53.358;-6.238;2023-08-06T09:35:10;5.25;;;2.08;;
71048;SDS011;58704;53.358;-6.238;2023-08-06T09:37:40;4.88;;;2.70;;
71048;SDS011;58704;53.358;-6.238;2023-08-06T09:40:21;9.37;;;2.27;;
71048;SDS011;58704;53.358;-6.238;2023-08-06T09:42:49;7.25;;;2.00;;
71048;SDS011;58704;53.358;-6.238;2023-08-06T09:45:15;4.67;;;2.17;;
71048;SDS011;58704;53.358;-6.238;2023-08-06T09:47:41;6.80;;;2.15;;
71048;SDS011;58704;53.358;-6.238;2023-08-06T09:50:14;3.53;;;1.70;;
71048;SDS011;58704;53.358;-6.238;2023-08-06T09:52:41;4.03;;;2.00;;
71048;SDS011;58704;53.358;-6.238;2023-08-06T09:55:07;5.03;;;2.10;;
71048;SDS011;58704;53.358;-6.238;2023-08-06T09:57:33;4.00;;;1.98;;
71048;SDS011;58704;53.358;-6.238;2023-08-06T09:59:58;7.80;;;2.33;;
71048;SDS011;58704;53.358;-6.238;2023-08-06T10:02:24;4.53;;;1.92;;
71048;SDS011;58704;53.358;-6.238;2023-08-06T10:04:50;3.40;;;2.13;;
71048;SDS011;58704;53.358;-6.238;2023-08-06T10:07:15;5.90;;;2.63;;
71048;SDS011;58704;53.358;-6.238;2023-08-06T10:09:43;4.97;;;2.35;;
71048;SDS011;58704;53.358;-6.238;2023-08-06T10:12:09;4.57;;;2.17;;
71048;SDS011;58704;53.358;-6.238;2023-08-06T10:14:35;3.90;;;1.90;;
71048;SDS011;58704;53.358;-6.238;2023-08-06T10:17:02;4.18;;;2.03;;
71048;SDS011;58704;53.358;-6.238;2023-08-06T10:19:28;3.60;;;1.77;;
71048;SDS011;58704;53.358;-6.238;2023-08-06T10:30:32;3.67;;;1.90;;
71048;SDS011;58704;53.358;-6.238;2023-08-06T10:32:58;5.15;;;2.17;;
71048;SDS011;58704;53.358;-6.238;2023-08-06T10:38:03;6.80;;;1.73;;
71048;SDS011;58704;53.358;-6.238;2023-08-06T10:40:29;3.05;;;1.70;;
71048;SDS011;58704;53.358;-6.238;2023-08-06T10:42:58;3.00;;;1.77;;
71048;SDS011;58704;53.358;-6.238;2023-08-06T10:45:24;4.80;;;2.00;;
71048;SDS011;58704;53.358;-6.238;2023-08-06T10:47:53;4.40;;;1.90;;
71048;SDS011;58704;53.358;-6.238;2023-08-06T10:50:20;6.53;;;1.93;;
71048;SDS011;58704;53.358;-6.238;2023-08-06T10:52:46;3.97;;;1.77;;
71048;SDS011;58704;53.358;-6.238;2023-08-06T10:55:12;3.72;;;1.90;;
71048;SDS011;58704;53.358;-6.238;2023-08-06T10:57:58;3.20;;;1.50;;
71048;SDS011;58704;53.358;-6.238;2023-08-06T11:00:23;3.47;;;1.58;;
71048;SDS011;58704;53.358;-6.238;2023-08-06T11:02:49;1.90;;;1.30;;
71048;SDS011;58704;53.358;-6.238;2023-08-06T11:05:16;3.65;;;1.80;;
71048;SDS011;58704;53.358;-6.238;2023-08-06T11:07:42;4.78;;;1.80;;
71048;SDS011;58704;53.358;-6.238;2023-08-06T11:10:08;2.70;;;1.37;;
71048;SDS011;58704;53.358;-6.238;2023-08-06T11:12:35;2.00;;;1.33;;
71048;SDS011;58704;53.358;-6.238;2023-08-06T11:15:01;3.03;;;1.87;;
71048;SDS011;58704;53.358;-6.238;2023-08-06T11:17:28;3.47;;;1.20;;
71048;SDS011;58704;53.358;-6.238;2023-08-06T11:19:54;1.80;;;1.17;;
71048;SDS011;58704;53.358;-6.238;2023-08-06T11:22:20;1.83;;;1.10;;
71048;SDS011;58704;53.358;-6.238;2023-08-06T11:24:46;2.17;;;0.97;;
71048;SDS011;58704;53.358;-6.238;2023-08-06T11:27:12;1.33;;;1.20;;
71048;SDS011;58704;53.358;-6.238;2023-08-06T11:29:39;3.15;;;1.15;;
71048;SDS011;58704;53.358;-6.238;2023-08-06T11:32:05;2.47;;;1.30;;
71048;SDS011;58704;53.358;-6.238;2023-08-06T11:34:31;1.63;;;1.52;;
71048;SDS011;58704;53.358;-6.238;2023-08-06T11:36:57;9.97;;;1.63;;
71048;SDS011;58704;53.358;-6.238;2023-08-06T11:39:22;1.98;;;1.20;;
71048;SDS011;58704;53.358;-6.238;2023-08-06T11:41:48;3.03;;;1.50;;
71048;SDS011;58704;53.358;-6.238;2023-08-06T11:44:13;2.47;;;1.40;;
71048;SDS011;58704;53.358;-6.238;2023-08-06T11:46:52;1.93;;;1.50;;
71048;SDS011;58704;53.358;-6.238;2023-08-06T11:49:18;3.53;;;1.40;;
71048;SDS011;58704;53.358;-6.238;2023-08-06T11:51:47;3.10;;;1.50;;
71048;SDS011;58704;53.358;-6.238;2023-08-06T11:54:12;2.10;;;1.73;;
71048;SDS011;58704;53.358;-6.238;2023-08-06T11:56:38;3.25;;;1.45;;
71048;SDS011;58704;53.358;-6.238;2023-08-06T11:59:03;2.53;;;1.37;;
71048;SDS011;58704;53.358;-6.238;2023-08-06T12:01:29;1.97;;;1.60;;
71048;SDS011;58704;53.358;-6.238;2023-08-06T12:03:58;3.40;;;1.60;;
71048;SDS011;58704;53.358;-6.238;2023-08-06T12:06:26;2.35;;;1.50;;
71048;SDS011;58704;53.358;-6.238;2023-08-06T12:08:52;2.42;;;1.60;;
71048;SDS011;58704;53.358;-6.238;2023-08-06T12:11:20;2.20;;;1.80;;
71048;SDS011;58704;53.358;-6.238;2023-08-06T12:13:50;2.63;;;1.45;;
71048;SDS011;58704;53.358;-6.238;2023-08-06T12:16:16;7.90;;;2.00;;
71048;SDS011;58704;53.358;-6.238;2023-08-06T12:18:43;3.90;;;1.70;;
71048;SDS011;58704;53.358;-6.238;2023-08-06T12:21:09;3.93;;;1.50;;
71048;SDS011;58704;53.358;-6.238;2023-08-06T12:23:34;3.47;;;1.47;;
71048;SDS011;58704;53.358;-6.238;2023-08-06T12:25:59;2.57;;;1.30;;
71048;SDS011;58704;53.358;-6.238;2023-08-06T12:28:25;3.43;;;1.60;;
71048;SDS011;58704;53.358;-6.238;2023-08-06T12:30:50;2.67;;;1.60;;
71048;SDS011;58704;53.358;-6.238;2023-08-06T12:33:19;5.47;;;1.77;;
71048;SDS011;58704;53.358;-6.238;2023-08-06T12:35:44;7.43;;;1.70;;
71048;SDS011;58704;53.358;-6.238;2023-08-06T12:38:10;5.30;;;1.50;;
71048;SDS011;58704;53.358;-6.238;2023-08-06T12:40:35;5.10;;;1.77;;
71048;SDS011;58704;53.358;-6.238;2023-08-06T12:43:01;3.37;;;1.57;;
71048;SDS011;58704;53.358;-6.238;2023-08-06T12:45:26;3.20;;;1.80;;
71048;SDS011;58704;53.358;-6.238;2023-08-06T12:47:51;3.45;;;1.58;;
71048;SDS011;58704;53.358;-6.238;2023-08-06T12:50:17;5.03;;;1.97;;
71048;SDS011;58704;53.358;-6.238;2023-08-06T12:52:42;3.77;;;1.60;;
71048;SDS011;58704;53.358;-6.238;2023-08-06T12:55:07;4.30;;;1.40;;
71048;SDS011;58704;53.358;-6.238;2023-08-06T12:57:33;1.97;;;1.50;;
71048;SDS011;58704;53.358;-6.238;2023-08-06T12:59:59;3.25;;;1.50;;
71048;SDS011;58704;53.358;-6.238;2023-08-06T13:02:25;2.83;;;1.60;;
71048;SDS011;58704;53.358;-6.238;2023-08-06T13:04:54;2.03;;;1.60;;
71048;SDS011;58704;53.358;-6.238;2023-08-06T13:07:20;1.73;;;1.60;;
71048;SDS011;58704;53.358;-6.238;2023-08-06T13:09:45;2.88;;;1.75;;
71048;SDS011;58704;53.358;-6.238;2023-08-06T13:12:10;3.30;;;1.50;;
71048;SDS011;58704;53.358;-6.238;2023-08-06T13:14:36;3.23;;;1.90;;
71048;SDS011;58704;53.358;-6.238;2023-08-06T13:17:01;3.27;;;1.70;;
71048;SDS011;58704;53.358;-6.238;2023-08-06T13:19:27;3.45;;;1.75;;
71048;SDS011;58704;53.358;-6.238;2023-08-06T13:22:00;1.90;;;1.40;;
71048;SDS011;58704;53.358;-6.238;2023-08-06T13:24:30;2.88;;;1.50;;
71048;SDS011;58704;53.358;-6.238;2023-08-06T13:26:56;2.75;;;1.70;;
71048;SDS011;58704;53.358;-6.238;2023-08-06T13:29:21;2.40;;;1.40;;
71048;SDS011;58704;53.358;-6.238;2023-08-06T13:31:47;2.87;;;1.50;;
71048;SDS011;58704;53.358;-6.238;2023-08-06T13:34:12;2.23;;;0.93;;
71048;SDS011;58704;53.358;-6.238;2023-08-06T13:36:38;2.40;;;1.10;;
71048;SDS011;58704;53.358;-6.238;2023-08-06T13:39:03;1.70;;;1.30;;
71048;SDS011;58704;53.358;-6.238;2023-08-06T13:41:30;1.58;;;1.20;;
71048;SDS011;58704;53.358;-6.238;2023-08-06T13:43:55;6.50;;;1.83;;
71048;SDS011;58704;53.358;-6.238;2023-08-06T13:46:21;9.82;;;2.30;;
71048;SDS011;58704;53.358;-6.238;2023-08-06T13:48:47;4.87;;;1.60;;
71048;SDS011;58704;53.358;-6.238;2023-08-06T13:51:16;3.75;;;1.90;;
71048;SDS011;58704;53.358;-6.238;2023-08-06T13:53:41;3.80;;;1.93;;
71048;SDS011;58704;53.358;-6.238;2023-08-06T13:56:07;3.13;;;2.33;;
71048;SDS011;58704;53.358;-6.238;2023-08-06T13:58:34;3.75;;;1.85;;
71048;SDS011;58704;53.358;-6.238;2023-08-06T14:01:00;2.23;;;1.40;;
71048;SDS011;58704;53.358;-6.238;2023-08-06T14:03:25;2.83;;;1.80;;
71048;SDS011;58704;53.358;-6.238;2023-08-06T14:05:51;3.53;;;1.50;;
71048;SDS011;58704;53.358;-6.238;2023-08-06T14:08:16;4.73;;;2.00;;
71048;SDS011;58704;53.358;-6.238;2023-08-06T14:10:44;2.60;;;1.95;;
71048;SDS011;58704;53.358;-6.238;2023-08-06T14:13:10;4.97;;;1.67;;
71048;SDS011;58704;53.358;-6.238;2023-08-06T14:15:35;3.07;;;2.00;;
71048;SDS011;58704;53.358;-6.238;2023-08-06T14:18:01;3.00;;;1.60;;
71048;SDS011;58704;53.358;-6.238;2023-08-06T14:20:27;2.60;;;1.85;;
71048;SDS011;58704;53.358;-6.238;2023-08-06T14:22:53;3.20;;;1.57;;
71048;SDS011;58704;53.358;-6.238;2023-08-06T14:25:18;3.37;;;1.47;;
71048;SDS011;58704;53.358;-6.238;2023-08-06T14:27:43;2.72;;;1.60;;
71048;SDS011;58704;53.358;-6.238;2023-08-06T14:30:09;2.23;;;1.43;;
71048;SDS011;58704;53.358;-6.238;2023-08-06T14:32:35;1.80;;;1.30;;
71048;SDS011;58704;53.358;-6.238;2023-08-06T14:35:00;1.55;;;1.45;;
71048;SDS011;58704;53.358;-6.238;2023-08-06T14:37:25;2.77;;;1.50;;
71048;SDS011;58704;53.358;-6.238;2023-08-06T14:39:51;1.80;;;1.27;;
71048;SDS011;58704;53.358;-6.238;2023-08-06T14:42:17;1.63;;;1.17;;
71048;SDS011;58704;53.358;-6.238;2023-08-06T14:44:42;1.57;;;1.10;;